Tipp, Ohio
Current Conditions -  °F | °C
As of 11:56 AM on Tuesday 21 Oct 2014 (Local Time) from KDAY Reporting Station
Overcast Overcast  
Wind Chill: 51°   Ceiling: 4500
Heat Index: 51°   Visibility: 10mi
Dew Point: 44°   Wind: 13mph
Humidity: 77%   Direction: 350°N
Pressure: 30.04"   Gusts: NA
Location:  39.9332°N, 84.1192°W
Report Text: KDAY 211556Z 35011KT 10SM FEW024 SCT035 OVC045 11/07 A3004 RMK AO2 CIG 029 RWY 6L SLP175 T01060067
Loading
Personal Weather Stations






























Interactive Weather Map
Tropical Storm Tracking
New forecast layout! Learn more

10-Day Weather Forecast

Advertisements
Track Severe Weather on mobile